sensor_id;sensor_type;location;lat;lon;timestamp;P1;durP1;ratioP1;P2;durP2;ratioP2
74487;SDS011;63019;51.080;13.642;2023-07-29T00:00:26;2.28;;;0.45;;
74487;SDS011;63019;51.080;13.642;2023-07-29T00:01:29;1.20;;;0.52;;
74487;SDS011;63019;51.080;13.642;2023-07-29T00:02:31;1.37;;;0.57;;
74487;SDS011;63019;51.080;13.642;2023-07-29T00:03:33;1.42;;;0.50;;
74487;SDS011;63019;51.080;13.642;2023-07-29T00:04:35;3.35;;;0.40;;
74487;SDS011;63019;51.080;13.642;2023-07-29T00:05:37;1.25;;;0.50;;
74487;SDS011;63019;51.080;13.642;2023-07-29T00:06:39;2.80;;;0.45;;
74487;SDS011;63019;51.080;13.642;2023-07-29T00:07:41;1.42;;;0.40;;
74487;SDS011;63019;51.080;13.642;2023-07-29T00:08:43;0.70;;;0.50;;
74487;SDS011;63019;51.080;13.642;2023-07-29T00:09:45;2.75;;;0.60;;
74487;SDS011;63019;51.080;13.642;2023-07-29T00:10:47;1.23;;;0.40;;
74487;SDS011;63019;51.080;13.642;2023-07-29T00:11:49;4.18;;;0.60;;
74487;SDS011;63019;51.080;13.642;2023-07-29T00:12:50;0.70;;;0.50;;
74487;SDS011;63019;51.080;13.642;2023-07-29T00:13:52;1.52;;;0.60;;
74487;SDS011;63019;51.080;13.642;2023-07-29T00:14:54;3.03;;;0.60;;
74487;SDS011;63019;51.080;13.642;2023-07-29T00:15:56;3.08;;;0.57;;
74487;SDS011;63019;51.080;13.642;2023-07-29T00:16:58;2.30;;;0.60;;
74487;SDS011;63019;51.080;13.642;2023-07-29T00:18:00;3.30;;;0.40;;
74487;SDS011;63019;51.080;13.642;2023-07-29T00:19:02;2.78;;;0.63;;
74487;SDS011;63019;51.080;13.642;2023-07-29T00:20:05;1.25;;;0.50;;
74487;SDS011;63019;51.080;13.642;2023-07-29T00:21:09;0.88;;;0.50;;
74487;SDS011;63019;51.080;13.642;2023-07-29T00:22:11;4.97;;;0.40;;
74487;SDS011;63019;51.080;13.642;2023-07-29T00:23:13;1.37;;;0.70;;
74487;SDS011;63019;51.080;13.642;2023-07-29T00:24:15;0.50;;;0.50;;
74487;SDS011;63019;51.080;13.642;2023-07-29T00:25:17;1.38;;;0.63;;
74487;SDS011;63019;51.080;13.642;2023-07-29T00:26:19;4.13;;;0.60;;
74487;SDS011;63019;51.080;13.642;2023-07-29T00:27:21;0.82;;;0.50;;
74487;SDS011;63019;51.080;13.642;2023-07-29T00:28:23;1.52;;;0.40;;
74487;SDS011;63019;51.080;13.642;2023-07-29T00:29:25;4.10;;;0.65;;
74487;SDS011;63019;51.080;13.642;2023-07-29T00:30:26;1.38;;;0.50;;
74487;SDS011;63019;51.080;13.642;2023-07-29T00:31:28;0.75;;;0.50;;
74487;SDS011;63019;51.080;13.642;2023-07-29T00:32:30;4.05;;;0.50;;
74487;SDS011;63019;51.080;13.642;2023-07-29T00:33:32;1.27;;;0.70;;
74487;SDS011;63019;51.080;13.642;2023-07-29T00:34:34;3.30;;;0.50;;
74487;SDS011;63019;51.080;13.642;2023-07-29T00:35:36;3.22;;;0.60;;
74487;SDS011;63019;51.080;13.642;2023-07-29T00:36:37;1.55;;;0.70;;
74487;SDS011;63019;51.080;13.642;2023-07-29T00:37:40;2.05;;;0.60;;
74487;SDS011;63019;51.080;13.642;2023-07-29T00:38:41;2.50;;;0.50;;
74487;SDS011;63019;51.080;13.642;2023-07-29T00:39:43;1.05;;;0.52;;
74487;SDS011;63019;51.080;13.642;2023-07-29T00:40:45;0.60;;;0.40;;
74487;SDS011;63019;51.080;13.642;2023-07-29T00:41:47;0.82;;;0.50;;
74487;SDS011;63019;51.080;13.642;2023-07-29T00:42:49;0.73;;;0.52;;
74487;SDS011;63019;51.080;13.642;2023-07-29T00:43:51;1.47;;;0.60;;
74487;SDS011;63019;51.080;13.642;2023-07-29T00:44:53;1.50;;;0.60;;
74487;SDS011;63019;51.080;13.642;2023-07-29T00:45:55;1.23;;;0.60;;
74487;SDS011;63019;51.080;13.642;2023-07-29T00:46:59;0.57;;;0.50;;
74487;SDS011;63019;51.080;13.642;2023-07-29T00:48:04;2.22;;;0.60;;
74487;SDS011;63019;51.080;13.642;2023-07-29T00:49:06;5.03;;;0.70;;
74487;SDS011;63019;51.080;13.642;2023-07-29T00:50:12;0.45;;;0.43;;
74487;SDS011;63019;51.080;13.642;2023-07-29T00:51:14;1.20;;;0.50;;
74487;SDS011;63019;51.080;13.642;2023-07-29T00:52:16;0.55;;;0.40;;
74487;SDS011;63019;51.080;13.642;2023-07-29T00:53:18;0.73;;;0.50;;
74487;SDS011;63019;51.080;13.642;2023-07-29T00:54:20;1.03;;;0.60;;
74487;SDS011;63019;51.080;13.642;2023-07-29T00:55:22;2.03;;;0.65;;
74487;SDS011;63019;51.080;13.642;2023-07-29T00:56:25;6.03;;;0.52;;
74487;SDS011;63019;51.080;13.642;2023-07-29T00:57:27;1.08;;;0.50;;
74487;SDS011;63019;51.080;13.642;2023-07-29T00:58:31;1.48;;;0.60;;
74487;SDS011;63019;51.080;13.642;2023-07-29T00:59:33;1.00;;;0.80;;
74487;SDS011;63019;51.080;13.642;2023-07-29T01:00:36;0.98;;;0.57;;
74487;SDS011;63019;51.080;13.642;2023-07-29T01:01:38;0.88;;;0.57;;
74487;SDS011;63019;51.080;13.642;2023-07-29T01:02:41;2.05;;;0.57;;
74487;SDS011;63019;51.080;13.642;2023-07-29T01:03:44;1.13;;;0.40;;
74487;SDS011;63019;51.080;13.642;2023-07-29T01:04:56;1.47;;;0.60;;
74487;SDS011;63019;51.080;13.642;2023-07-29T01:06:23;1.13;;;0.50;;
74487;SDS011;63019;51.080;13.642;2023-07-29T01:09:14;3.20;;;0.50;;
74487;SDS011;63019;51.080;13.642;2023-07-29T01:15:06;0.93;;;0.52;;
74487;SDS011;63019;51.080;13.642;2023-07-29T01:16:23;0.60;;;0.50;;
74487;SDS011;63019;51.080;13.642;2023-07-29T01:17:41;3.17;;;0.70;;
74487;SDS011;63019;51.080;13.642;2023-07-29T01:18:45;3.13;;;0.50;;
74487;SDS011;63019;51.080;13.642;2023-07-29T01:20:11;0.68;;;0.50;;
74487;SDS011;63019;51.080;13.642;2023-07-29T01:21:18;0.75;;;0.50;;
74487;SDS011;63019;51.080;13.642;2023-07-29T01:22:22;2.25;;;0.60;;
74487;SDS011;63019;51.080;13.642;2023-07-29T01:23:25;0.85;;;0.30;;
74487;SDS011;63019;51.080;13.642;2023-07-29T01:24:30;1.38;;;0.63;;
74487;SDS011;63019;51.080;13.642;2023-07-29T01:25:32;0.90;;;0.40;;
74487;SDS011;63019;51.080;13.642;2023-07-29T01:26:34;2.40;;;0.55;;
74487;SDS011;63019;51.080;13.642;2023-07-29T01:27:36;0.93;;;0.50;;
74487;SDS011;63019;51.080;13.642;2023-07-29T01:28:38;0.90;;;0.50;;
74487;SDS011;63019;51.080;13.642;2023-07-29T01:29:40;1.50;;;0.40;;
74487;SDS011;63019;51.080;13.642;2023-07-29T01:30:43;1.50;;;0.50;;
74487;SDS011;63019;51.080;13.642;2023-07-29T01:31:46;1.08;;;0.43;;
74487;SDS011;63019;51.080;13.642;2023-07-29T01:34:22;1.58;;;0.50;;
74487;SDS011;63019;51.080;13.642;2023-07-29T01:35:36;1.23;;;0.52;;
74487;SDS011;63019;51.080;13.642;2023-07-29T01:36:40;0.93;;;0.38;;
74487;SDS011;63019;51.080;13.642;2023-07-29T01:37:46;1.48;;;0.50;;
74487;SDS011;63019;51.080;13.642;2023-07-29T01:38:52;1.75;;;0.52;;
74487;SDS011;63019;51.080;13.642;2023-07-29T01:39:56;1.20;;;0.43;;
74487;SDS011;63019;51.080;13.642;2023-07-29T01:41:03;1.53;;;0.40;;
74487;SDS011;63019;51.080;13.642;2023-07-29T01:42:07;1.10;;;0.40;;
74487;SDS011;63019;51.080;13.642;2023-07-29T01:43:09;3.05;;;0.50;;
74487;SDS011;63019;51.080;13.642;2023-07-29T01:44:11;2.35;;;0.40;;
74487;SDS011;63019;51.080;13.642;2023-07-29T01:45:14;1.00;;;0.55;;
74487;SDS011;63019;51.080;13.642;2023-07-29T01:46:17;0.65;;;0.30;;
74487;SDS011;63019;51.080;13.642;2023-07-29T01:47:20;0.70;;;0.50;;
74487;SDS011;63019;51.080;13.642;2023-07-29T01:48:23;1.15;;;0.43;;
74487;SDS011;63019;51.080;13.642;2023-07-29T01:49:25;1.67;;;0.60;;
74487;SDS011;63019;51.080;13.642;2023-07-29T01:50:27;2.75;;;0.40;;
74487;SDS011;63019;51.080;13.642;2023-07-29T01:51:29;0.53;;;0.40;;
74487;SDS011;63019;51.080;13.642;2023-07-29T01:52:31;1.90;;;1.08;;
74487;SDS011;63019;51.080;13.642;2023-07-29T01:53:33;1.73;;;0.60;;
74487;SDS011;63019;51.080;13.642;2023-07-29T01:54:34;1.05;;;0.60;;
74487;SDS011;63019;51.080;13.642;2023-07-29T01:55:36;0.47;;;0.40;;
74487;SDS011;63019;51.080;13.642;2023-07-29T01:56:38;1.17;;;0.63;;
74487;SDS011;63019;51.080;13.642;2023-07-29T01:57:40;1.27;;;0.50;;
74487;SDS011;63019;51.080;13.642;2023-07-29T01:58:42;2.20;;;0.40;;
74487;SDS011;63019;51.080;13.642;2023-07-29T01:59:44;0.88;;;0.50;;
74487;SDS011;63019;51.080;13.642;2023-07-29T02:00:45;1.83;;;0.60;;
74487;SDS011;63019;51.080;13.642;2023-07-29T02:01:47;1.80;;;0.50;;
74487;SDS011;63019;51.080;13.642;2023-07-29T02:02:50;0.47;;;0.40;;
74487;SDS011;63019;51.080;13.642;2023-07-29T02:03:51;0.60;;;0.40;;
74487;SDS011;63019;51.080;13.642;2023-07-29T02:04:56;0.50;;;0.50;;
74487;SDS011;63019;51.080;13.642;2023-07-29T02:05:58;3.80;;;0.75;;
74487;SDS011;63019;51.080;13.642;2023-07-29T02:07:00;0.70;;;0.50;;
74487;SDS011;63019;51.080;13.642;2023-07-29T02:08:02;0.70;;;0.60;;
74487;SDS011;63019;51.080;13.642;2023-07-29T02:09:04;1.23;;;0.50;;
74487;SDS011;63019;51.080;13.642;2023-07-29T02:10:06;1.05;;;0.70;;
74487;SDS011;63019;51.080;13.642;2023-07-29T02:11:08;0.73;;;0.60;;
74487;SDS011;63019;51.080;13.642;2023-07-29T02:12:10;2.93;;;0.40;;
74487;SDS011;63019;51.080;13.642;2023-07-29T02:13:12;1.73;;;0.43;;
74487;SDS011;63019;51.080;13.642;2023-07-29T02:14:14;1.00;;;0.50;;
74487;SDS011;63019;51.080;13.642;2023-07-29T02:15:16;1.23;;;0.52;;
74487;SDS011;63019;51.080;13.642;2023-07-29T02:16:18;3.22;;;0.40;;
74487;SDS011;63019;51.080;13.642;2023-07-29T02:17:20;0.60;;;0.60;;
74487;SDS011;63019;51.080;13.642;2023-07-29T02:18:22;0.70;;;0.43;;
74487;SDS011;63019;51.080;13.642;2023-07-29T02:19:24;2.63;;;0.55;;
74487;SDS011;63019;51.080;13.642;2023-07-29T02:20:26;1.80;;;0.40;;
74487;SDS011;63019;51.080;13.642;2023-07-29T02:21:28;2.47;;;0.50;;
74487;SDS011;63019;51.080;13.642;2023-07-29T02:22:30;1.20;;;0.50;;
74487;SDS011;63019;51.080;13.642;2023-07-29T02:23:32;0.70;;;0.47;;
74487;SDS011;63019;51.080;13.642;2023-07-29T02:24:34;3.67;;;0.60;;
74487;SDS011;63019;51.080;13.642;2023-07-29T02:25:36;1.42;;;0.60;;
74487;SDS011;63019;51.080;13.642;2023-07-29T02:26:38;1.67;;;0.70;;
74487;SDS011;63019;51.080;13.642;2023-07-29T02:27:39;1.45;;;0.50;;
74487;SDS011;63019;51.080;13.642;2023-07-29T02:28:41;2.35;;;0.57;;
74487;SDS011;63019;51.080;13.642;2023-07-29T02:29:43;0.75;;;0.47;;
74487;SDS011;63019;51.080;13.642;2023-07-29T02:30:45;1.85;;;0.40;;
74487;SDS011;63019;51.080;13.642;2023-07-29T02:31:47;0.35;;;0.30;;
74487;SDS011;63019;51.080;13.642;2023-07-29T02:32:49;2.93;;;0.50;;
74487;SDS011;63019;51.080;13.642;2023-07-29T02:33:51;0.98;;;0.40;;
74487;SDS011;63019;51.080;13.642;2023-07-29T02:34:53;1.05;;;0.45;;
74487;SDS011;63019;51.080;13.642;2023-07-29T02:35:55;2.35;;;0.60;;
74487;SDS011;63019;51.080;13.642;2023-07-29T02:36:57;1.80;;;0.70;;
74487;SDS011;63019;51.080;13.642;2023-07-29T02:37:58;0.50;;;0.40;;
74487;SDS011;63019;51.080;13.642;2023-07-29T02:39:00;1.85;;;0.50;;
74487;SDS011;63019;51.080;13.642;2023-07-29T02:40:02;0.80;;;0.50;;
74487;SDS011;63019;51.080;13.642;2023-07-29T02:41:05;1.08;;;0.40;;
74487;SDS011;63019;51.080;13.642;2023-07-29T02:42:07;1.77;;;0.40;;
74487;SDS011;63019;51.080;13.642;2023-07-29T02:43:09;1.63;;;0.50;;
74487;SDS011;63019;51.080;13.642;2023-07-29T02:44:12;1.08;;;0.40;;
74487;SDS011;63019;51.080;13.642;2023-07-29T02:45:13;1.25;;;0.40;;
74487;SDS011;63019;51.080;13.642;2023-07-29T02:46:15;0.60;;;0.50;;
74487;SDS011;63019;51.080;13.642;2023-07-29T02:47:18;1.67;;;0.47;;
74487;SDS011;63019;51.080;13.642;2023-07-29T02:48:20;0.63;;;0.40;;
74487;SDS011;63019;51.080;13.642;2023-07-29T02:49:22;2.38;;;0.40;;
74487;SDS011;63019;51.080;13.642;2023-07-29T02:50:24;0.98;;;0.40;;
74487;SDS011;63019;51.080;13.642;2023-07-29T02:51:26;1.42;;;0.40;;
74487;SDS011;63019;51.080;13.642;2023-07-29T02:52:28;4.32;;;0.40;;
74487;SDS011;63019;51.080;13.642;2023-07-29T02:53:30;0.90;;;0.50;;
74487;SDS011;63019;51.080;13.642;2023-07-29T02:54:32;1.98;;;0.50;;
74487;SDS011;63019;51.080;13.642;2023-07-29T02:55:33;1.52;;;0.50;;
74487;SDS011;63019;51.080;13.642;2023-07-29T02:56:35;1.10;;;0.47;;
74487;SDS011;63019;51.080;13.642;2023-07-29T02:57:38;0.90;;;0.40;;
74487;SDS011;63019;51.080;13.642;2023-07-29T02:58:40;0.50;;;0.40;;
74487;SDS011;63019;51.080;13.642;2023-07-29T02:59:41;1.10;;;0.50;;
74487;SDS011;63019;51.080;13.642;2023-07-29T03:00:43;0.52;;;0.40;;
74487;SDS011;63019;51.080;13.642;2023-07-29T03:01:45;0.77;;;0.40;;
74487;SDS011;63019;51.080;13.642;2023-07-29T03:02:48;0.73;;;0.43;;
74487;SDS011;63019;51.080;13.642;2023-07-29T03:03:51;1.63;;;0.50;;
74487;SDS011;63019;51.080;13.642;2023-07-29T03:04:53;4.03;;;0.40;;
74487;SDS011;63019;51.080;13.642;2023-07-29T03:06:08;4.55;;;0.40;;
74487;SDS011;63019;51.080;13.642;2023-07-29T03:07:11;1.23;;;0.32;;
74487;SDS011;63019;51.080;13.642;2023-07-29T03:08:13;2.92;;;0.40;;
74487;SDS011;63019;51.080;13.642;2023-07-29T03:09:15;1.33;;;0.32;;
74487;SDS011;63019;51.080;13.642;2023-07-29T03:10:17;0.38;;;0.30;;
74487;SDS011;63019;51.080;13.642;2023-07-29T03:11:18;1.10;;;0.43;;
74487;SDS011;63019;51.080;13.642;2023-07-29T03:12:21;1.58;;;0.47;;
74487;SDS011;63019;51.080;13.642;2023-07-29T03:13:22;0.70;;;0.40;;
74487;SDS011;63019;51.080;13.642;2023-07-29T03:14:24;0.70;;;0.30;;
74487;SDS011;63019;51.080;13.642;2023-07-29T03:15:27;0.38;;;0.30;;
74487;SDS011;63019;51.080;13.642;2023-07-29T03:16:28;0.60;;;0.40;;
74487;SDS011;63019;51.080;13.642;2023-07-29T03:17:30;2.38;;;0.30;;
74487;SDS011;63019;51.080;13.642;2023-07-29T03:18:32;0.80;;;0.30;;
74487;SDS011;63019;51.080;13.642;2023-07-29T03:19:34;1.42;;;0.30;;
74487;SDS011;63019;51.080;13.642;2023-07-29T03:20:36;0.60;;;0.20;;
74487;SDS011;63019;51.080;13.642;2023-07-29T03:21:38;1.45;;;0.30;;
74487;SDS011;63019;51.080;13.642;2023-07-29T03:22:40;1.27;;;0.30;;
74487;SDS011;63019;51.080;13.642;2023-07-29T03:23:41;0.50;;;0.20;;
74487;SDS011;63019;51.080;13.642;2023-07-29T03:24:43;2.00;;;0.30;;
74487;SDS011;63019;51.080;13.642;2023-07-29T03:25:47;0.30;;;0.30;;
74487;SDS011;63019;51.080;13.642;2023-07-29T03:26:52;2.33;;;0.32;;
74487;SDS011;63019;51.080;13.642;2023-07-29T03:27:53;0.90;;;0.32;;
74487;SDS011;63019;51.080;13.642;2023-07-29T03:28:55;0.40;;;0.20;;
74487;SDS011;63019;51.080;13.642;2023-07-29T03:29:57;0.30;;;0.20;;
74487;SDS011;63019;51.080;13.642;2023-07-29T03:31:00;0.43;;;0.22;;
74487;SDS011;63019;51.080;13.642;2023-07-29T03:32:02;0.50;;;0.28;;
74487;SDS011;63019;51.080;13.642;2023-07-29T03:33:04;0.93;;;0.30;;
74487;SDS011;63019;51.080;13.642;2023-07-29T03:34:06;1.33;;;0.30;;
74487;SDS011;63019;51.080;13.642;2023-07-29T03:35:08;0.30;;;0.30;;
74487;SDS011;63019;51.080;13.642;2023-07-29T03:36:09;1.33;;;0.30;;
74487;SDS011;63019;51.080;13.642;2023-07-29T03:37:11;2.30;;;0.30;;
74487;SDS011;63019;51.080;13.642;2023-07-29T03:38:13;0.70;;;0.30;;
74487;SDS011;63019;51.080;13.642;2023-07-29T03:39:16;0.32;;;0.20;;
74487;SDS011;63019;51.080;13.642;2023-07-29T03:40:18;0.38;;;0.20;;
74487;SDS011;63019;51.080;13.642;2023-07-29T03:41:19;0.95;;;0.30;;
74487;SDS011;63019;51.080;13.642;2023-07-29T03:42:21;1.50;;;0.40;;
74487;SDS011;63019;51.080;13.642;2023-07-29T03:43:23;3.60;;;0.30;;
74487;SDS011;63019;51.080;13.642;2023-07-29T03:44:25;0.90;;;0.30;;
74487;SDS011;63019;51.080;13.642;2023-07-29T03:45:27;1.07;;;0.37;;
74487;SDS011;63019;51.080;13.642;2023-07-29T03:46:29;0.80;;;0.20;;
74487;SDS011;63019;51.080;13.642;2023-07-29T03:47:30;0.10;;;0.10;;
74487;SDS011;63019;51.080;13.642;2023-07-29T03:48:32;2.00;;;0.20;;
74487;SDS011;63019;51.080;13.642;2023-07-29T03:49:34;0.20;;;0.20;;
74487;SDS011;63019;51.080;13.642;2023-07-29T03:50:36;0.55;;;0.22;;
74487;SDS011;63019;51.080;13.642;2023-07-29T03:51:38;0.95;;;0.40;;
74487;SDS011;63019;51.080;13.642;2023-07-29T03:52:40;0.95;;;0.25;;
74487;SDS011;63019;51.080;13.642;2023-07-29T03:53:42;1.25;;;0.35;;
74487;SDS011;63019;51.080;13.642;2023-07-29T03:54:44;0.25;;;0.20;;
74487;SDS011;63019;51.080;13.642;2023-07-29T03:55:46;0.80;;;0.30;;
74487;SDS011;63019;51.080;13.642;2023-07-29T03:56:48;0.25;;;0.20;;
74487;SDS011;63019;51.080;13.642;2023-07-29T03:57:50;0.50;;;0.20;;
74487;SDS011;63019;51.080;13.642;2023-07-29T03:58:52;2.67;;;0.38;;
74487;SDS011;63019;51.080;13.642;2023-07-29T03:59:54;0.30;;;0.28;;
74487;SDS011;63019;51.080;13.642;2023-07-29T04:00:56;0.38;;;0.20;;
74487;SDS011;63019;51.080;13.642;2023-07-29T04:01:58;0.38;;;0.30;;
74487;SDS011;63019;51.080;13.642;2023-07-29T04:02:59;2.30;;;0.20;;
74487;SDS011;63019;51.080;13.642;2023-07-29T04:04:01;0.57;;;0.10;;
74487;SDS011;63019;51.080;13.642;2023-07-29T04:05:04;0.17;;;0.15;;
74487;SDS011;63019;51.080;13.642;2023-07-29T04:06:06;0.60;;;0.23;;
74487;SDS011;63019;51.080;13.642;2023-07-29T04:07:08;1.05;;;0.30;;
74487;SDS011;63019;51.080;13.642;2023-07-29T04:08:10;0.57;;;0.20;;
74487;SDS011;63019;51.080;13.642;2023-07-29T04:09:12;1.10;;;0.22;;
74487;SDS011;63019;51.080;13.642;2023-07-29T04:10:14;1.23;;;0.40;;
74487;SDS011;63019;51.080;13.642;2023-07-29T04:11:16;0.57;;;0.30;;
74487;SDS011;63019;51.080;13.642;2023-07-29T04:12:18;0.30;;;0.22;;
74487;SDS011;63019;51.080;13.642;2023-07-29T04:13:22;0.30;;;0.30;;
74487;SDS011;63019;51.080;13.642;2023-07-29T04:14:24;0.52;;;0.20;;
74487;SDS011;63019;51.080;13.642;2023-07-29T04:15:26;0.50;;;0.20;;
74487;SDS011;63019;51.080;13.642;2023-07-29T04:16:28;0.23;;;0.20;;
74487;SDS011;63019;51.080;13.642;2023-07-29T04:17:30;0.17;;;0.10;;
74487;SDS011;63019;51.080;13.642;2023-07-29T04:18:32;2.08;;;0.20;;
74487;SDS011;63019;51.080;13.642;2023-07-29T04:19:34;0.35;;;0.30;;
74487;SDS011;63019;51.080;13.642;2023-07-29T04:20:36;1.05;;;0.20;;
74487;SDS011;63019;51.080;13.642;2023-07-29T04:21:38;0.47;;;0.20;;
74487;SDS011;63019;51.080;13.642;2023-07-29T04:22:40;0.30;;;0.25;;
74487;SDS011;63019;51.080;13.642;2023-07-29T04:23:41;0.70;;;0.30;;
74487;SDS011;63019;51.080;13.642;2023-07-29T04:24:43;1.83;;;0.30;;
74487;SDS011;63019;51.080;13.642;2023-07-29T04:25:45;2.55;;;0.20;;
74487;SDS011;63019;51.080;13.642;2023-07-29T04:26:47;0.50;;;0.20;;
74487;SDS011;63019;51.080;13.642;2023-07-29T04:27:49;3.58;;;0.30;;
74487;SDS011;63019;51.080;13.642;2023-07-29T04:28:50;0.75;;;0.30;;
74487;SDS011;63019;51.080;13.642;2023-07-29T04:29:52;2.53;;;0.28;;
74487;SDS011;63019;51.080;13.642;2023-07-29T04:30:54;0.30;;;0.30;;
74487;SDS011;63019;51.080;13.642;2023-07-29T04:31:56;0.38;;;0.30;;
74487;SDS011;63019;51.080;13.642;2023-07-29T04:32:58;0.38;;;0.20;;
74487;SDS011;63019;51.080;13.642;2023-07-29T04:34:00;1.75;;;0.38;;
74487;SDS011;63019;51.080;13.642;2023-07-29T04:35:03;0.40;;;0.30;;
74487;SDS011;63019;51.080;13.642;2023-07-29T04:36:05;0.30;;;0.30;;
74487;SDS011;63019;51.080;13.642;2023-07-29T04:37:07;0.60;;;0.23;;
74487;SDS011;63019;51.080;13.642;2023-07-29T04:38:09;2.10;;;0.22;;
74487;SDS011;63019;51.080;13.642;2023-07-29T04:39:11;1.83;;;0.17;;
74487;SDS011;63019;51.080;13.642;2023-07-29T04:40:13;0.20;;;0.20;;
74487;SDS011;63019;51.080;13.642;2023-07-29T04:41:15;0.77;;;0.30;;
74487;SDS011;63019;51.080;13.642;2023-07-29T04:42:17;2.63;;;0.40;;
74487;SDS011;63019;51.080;13.642;2023-07-29T04:43:19;0.55;;;0.30;;
74487;SDS011;63019;51.080;13.642;2023-07-29T04:44:21;0.45;;;0.20;;
74487;SDS011;63019;51.080;13.642;2023-07-29T04:45:23;0.40;;;0.30;;
74487;SDS011;63019;51.080;13.642;2023-07-29T04:46:29;1.70;;;0.40;;
74487;SDS011;63019;51.080;13.642;2023-07-29T04:47:31;1.43;;;0.27;;
74487;SDS011;63019;51.080;13.642;2023-07-29T04:48:33;1.20;;;0.50;;
74487;SDS011;63019;51.080;13.642;2023-07-29T04:49:34;0.40;;;0.30;;
74487;SDS011;63019;51.080;13.642;2023-07-29T04:50:36;2.90;;;0.30;;
74487;SDS011;63019;51.080;13.642;2023-07-29T04:51:38;0.63;;;0.30;;
74487;SDS011;63019;51.080;13.642;2023-07-29T04:52:40;0.28;;;0.20;;
74487;SDS011;63019;51.080;13.642;2023-07-29T04:53:42;1.58;;;0.20;;
74487;SDS011;63019;51.080;13.642;2023-07-29T04:54:44;1.15;;;0.25;;
74487;SDS011;63019;51.080;13.642;2023-07-29T04:55:46;2.25;;;0.40;;
74487;SDS011;63019;51.080;13.642;2023-07-29T04:56:48;0.25;;;0.20;;
74487;SDS011;63019;51.080;13.642;2023-07-29T04:57:49;0.70;;;0.30;;
74487;SDS011;63019;51.080;13.642;2023-07-29T04:58:51;2.15;;;0.30;;
74487;SDS011;63019;51.080;13.642;2023-07-29T04:59:55;1.55;;;0.30;;
74487;SDS011;63019;51.080;13.642;2023-07-29T05:00:56;0.75;;;0.20;;
74487;SDS011;63019;51.080;13.642;2023-07-29T05:01:58;0.47;;;0.30;;
74487;SDS011;63019;51.080;13.642;2023-07-29T05:03:00;0.20;;;0.20;;
74487;SDS011;63019;51.080;13.642;2023-07-29T05:04:02;0.68;;;0.20;;
74487;SDS011;63019;51.080;13.642;2023-07-29T05:05:04;1.00;;;0.30;;
74487;SDS011;63019;51.080;13.642;2023-07-29T05:06:06;0.52;;;0.20;;
74487;SDS011;63019;51.080;13.642;2023-07-29T05:07:08;0.88;;;0.30;;
74487;SDS011;63019;51.080;13.642;2023-07-29T05:08:10;1.43;;;0.30;;
74487;SDS011;63019;51.080;13.642;2023-07-29T05:09:15;1.67;;;0.30;;
74487;SDS011;63019;51.080;13.642;2023-07-29T05:10:19;0.20;;;0.17;;
74487;SDS011;63019;51.080;13.642;2023-07-29T05:11:21;0.75;;;0.20;;
74487;SDS011;63019;51.080;13.642;2023-07-29T05:12:23;0.20;;;0.20;;
74487;SDS011;63019;51.080;13.642;2023-07-29T05:13:25;1.92;;;0.30;;
74487;SDS011;63019;51.080;13.642;2023-07-29T05:14:27;0.30;;;0.20;;
74487;SDS011;63019;51.080;13.642;2023-07-29T05:15:29;0.60;;;0.40;;
74487;SDS011;63019;51.080;13.642;2023-07-29T05:16:31;1.15;;;0.30;;
74487;SDS011;63019;51.080;13.642;2023-07-29T05:17:34;1.42;;;0.40;;
74487;SDS011;63019;51.080;13.642;2023-07-29T05:18:37;2.23;;;0.30;;
74487;SDS011;63019;51.080;13.642;2023-07-29T05:19:39;1.75;;;0.20;;
74487;SDS011;63019;51.080;13.642;2023-07-29T05:20:41;0.38;;;0.30;;
74487;SDS011;63019;51.080;13.642;2023-07-29T05:21:43;0.47;;;0.30;;
74487;SDS011;63019;51.080;13.642;2023-07-29T05:22:45;0.93;;;0.30;;
74487;SDS011;63019;51.080;13.642;2023-07-29T05:23:47;0.85;;;0.30;;
74487;SDS011;63019;51.080;13.642;2023-07-29T05:24:49;0.22;;;0.20;;
74487;SDS011;63019;51.080;13.642;2023-07-29T05:25:51;0.40;;;0.28;;
74487;SDS011;63019;51.080;13.642;2023-07-29T05:26:53;0.95;;;0.30;;
74487;SDS011;63019;51.080;13.642;2023-07-29T05:27:54;1.55;;;0.20;;
74487;SDS011;63019;51.080;13.642;2023-07-29T05:28:56;1.03;;;0.30;;
74487;SDS011;63019;51.080;13.642;2023-07-29T05:29:58;0.55;;;0.20;;
74487;SDS011;63019;51.080;13.642;2023-07-29T05:31:00;0.85;;;0.30;;
74487;SDS011;63019;51.080;13.642;2023-07-29T05:32:03;1.25;;;0.28;;
74487;SDS011;63019;51.080;13.642;2023-07-29T05:33:05;0.35;;;0.20;;
74487;SDS011;63019;51.080;13.642;2023-07-29T05:34:09;0.52;;;0.30;;
74487;SDS011;63019;51.080;13.642;2023-07-29T05:35:11;0.30;;;0.30;;
74487;SDS011;63019;51.080;13.642;2023-07-29T05:36:13;0.50;;;0.30;;
74487;SDS011;63019;51.080;13.642;2023-07-29T05:37:15;1.50;;;0.20;;
74487;SDS011;63019;51.080;13.642;2023-07-29T05:38:17;1.02;;;0.20;;
74487;SDS011;63019;51.080;13.642;2023-07-29T05:39:19;0.70;;;0.30;;
74487;SDS011;63019;51.080;13.642;2023-07-29T05:40:21;0.35;;;0.25;;
74487;SDS011;63019;51.080;13.642;2023-07-29T05:41:23;0.68;;;0.30;;
74487;SDS011;63019;51.080;13.642;2023-07-29T05:42:24;0.68;;;0.30;;
74487;SDS011;63019;51.080;13.642;2023-07-29T05:43:26;1.05;;;0.40;;
74487;SDS011;63019;51.080;13.642;2023-07-29T05:44:29;0.93;;;0.20;;
74487;SDS011;63019;51.080;13.642;2023-07-29T05:45:33;0.32;;;0.30;;
74487;SDS011;63019;51.080;13.642;2023-07-29T05:46:35;0.68;;;0.25;;
74487;SDS011;63019;51.080;13.642;2023-07-29T05:47:37;1.05;;;0.30;;
74487;SDS011;63019;51.080;13.642;2023-07-29T05:48:39;0.40;;;0.22;;
74487;SDS011;63019;51.080;13.642;2023-07-29T05:49:41;0.43;;;0.27;;
74487;SDS011;63019;51.080;13.642;2023-07-29T05:50:43;0.40;;;0.20;;
74487;SDS011;63019;51.080;13.642;2023-07-29T05:51:45;1.33;;;0.20;;
74487;SDS011;63019;51.080;13.642;2023-07-29T05:52:47;0.52;;;0.20;;
74487;SDS011;63019;51.080;13.642;2023-07-29T05:53:48;0.40;;;0.30;;
74487;SDS011;63019;51.080;13.642;2023-07-29T05:54:50;0.28;;;0.28;;
74487;SDS011;63019;51.080;13.642;2023-07-29T05:55:52;2.15;;;0.40;;
74487;SDS011;63019;51.080;13.642;2023-07-29T05:56:54;0.80;;;0.30;;
74487;SDS011;63019;51.080;13.642;2023-07-29T05:57:58;2.58;;;0.40;;
74487;SDS011;63019;51.080;13.642;2023-07-29T05:59:00;0.68;;;0.43;;
74487;SDS011;63019;51.080;13.642;2023-07-29T06:00:01;2.73;;;0.40;;
74487;SDS011;63019;51.080;13.642;2023-07-29T06:01:03;0.60;;;0.30;;
74487;SDS011;63019;51.080;13.642;2023-07-29T06:02:05;0.57;;;0.30;;
74487;SDS011;63019;51.080;13.642;2023-07-29T06:03:08;0.77;;;0.40;;
74487;SDS011;63019;51.080;13.642;2023-07-29T06:04:10;1.48;;;0.35;;
74487;SDS011;63019;51.080;13.642;2023-07-29T06:05:12;0.80;;;0.30;;
74487;SDS011;63019;51.080;13.642;2023-07-29T06:06:14;0.40;;;0.30;;
74487;SDS011;63019;51.080;13.642;2023-07-29T06:07:16;1.15;;;0.40;;
74487;SDS011;63019;51.080;13.642;2023-07-29T06:08:18;3.63;;;0.20;;
74487;SDS011;63019;51.080;13.642;2023-07-29T06:09:20;0.55;;;0.22;;
74487;SDS011;63019;51.080;13.642;2023-07-29T06:10:22;0.40;;;0.30;;
74487;SDS011;63019;51.080;13.642;2023-07-29T06:11:24;0.30;;;0.30;;
74487;SDS011;63019;51.080;13.642;2023-07-29T06:12:26;1.48;;;0.20;;
74487;SDS011;63019;51.080;13.642;2023-07-29T06:13:28;0.20;;;0.20;;
74487;SDS011;63019;51.080;13.642;2023-07-29T06:14:30;0.30;;;0.30;;
74487;SDS011;63019;51.080;13.642;2023-07-29T06:15:32;1.58;;;0.20;;
74487;SDS011;63019;51.080;13.642;2023-07-29T06:16:34;0.65;;;0.30;;
74487;SDS011;63019;51.080;13.642;2023-07-29T06:17:37;0.43;;;0.25;;
74487;SDS011;63019;51.080;13.642;2023-07-29T06:18:39;0.52;;;0.20;;